Time;durP1;ratioP1;P1;durP2;ratioP2;P2;SDS_P1;SDS_P2;PMS_P1;PMS_P2;Temp;Humidity;BMP_temperature;BMP_pressure;BME280_temperature;BME280_humidity;BME280_pressure;Samples;Min_cycle;Max_cycle;Signal;HPM_P1;HPM_P2
2022/02/21 16:37:50;;;;;;;;;;;;;;;;;;5068784;28;20005;-36
2022/02/21 16:40:15;;;;;;;;;;;;;;;;;;5068471;28;20296;-36
2022/02/21 16:42:41;;;;;;;;;;;;;;;;;;5066008;28;19915;-38
2022/02/21 16:45:07;;;;;;;;;;;;;;;;;;5061726;28;20007;-36
2022/02/21 16:47:33;;;;;;;;;;;;;;;;;;5068176;28;19917;-37
2022/02/21 16:49:59;;;;;;;;;;;;;;;;;;5068821;28;20353;-37
2022/02/21 16:52:25;;;;;;;;;;;;;;;;;;5068569;28;20754;-38
2022/02/21 16:54:50;;;;;;;;;;;;;;;;;;5068262;28;19916;-38
2022/02/21 16:57:16;;;;;;;;;;;;;;;;;;5068251;28;19912;-37
2022/02/21 16:59:42;;;;;;;;;;;;;;;;;;5061520;28;19921;-35
2022/02/21 17:02:08;;;;;;;;;;;;;;;;;;5048095;28;19909;-37
2022/02/21 17:04:34;;;;;;;;;;;;;;;;;;5048205;28;19913;-37
2022/02/21 17:07:00;;;;;;;;;;;;;;;;;;5048385;28;19913;-37
2022/02/21 17:09:25;;;;;;;;;;;;;;;;;;5048061;28;19964;-33
2022/02/21 17:11:51;;;;;;;;;;;;;;;;;;5046617;28;19917;-37
2022/02/21 17:14:17;;;;;;;;;;;;;;;;;;5048075;28;19913;-38
2022/02/21 17:16:43;;;;;;;;;;;;;;;;;;5047782;28;19913;-38
2022/02/21 17:19:09;;;;;;;;;;;;;;;;;;5047878;28;19920;-37
2022/02/21 17:21:35;;;;;;;;;;;;;;;;;;5033715;28;19910;-37
2022/02/21 17:24:01;;;;;;;;;;;;;;;;;;5036481;28;20411;-37
2022/02/21 17:26:26;;;;;;;;;;;;;;;;;;5047847;28;20281;-37
2022/02/21 17:28:52;;;;;;;;;;;;;;;;;;5047867;28;19964;-37
2022/02/21 17:31:19;;;;;;;;;;;;;;;;;;5047592;28;19909;-36
2022/02/21 17:33:45;;;;;;;;;;;;;;;;;;5047625;28;20332;-37
2022/02/21 17:36:10;;;;;;;;;;;;;;;;;;5054568;28;19928;-37
2022/02/21 17:38:36;;;;;;;;;;;;;;;;;;5066768;28;19917;-37
2022/02/21 17:41:02;;;;;;;;;;;;;;;;;;5064888;28;19919;-37
2022/02/21 17:43:28;;;;;;;;;;;;;;;;;;5056142;28;19928;-37
2022/02/21 17:45:54;;;;;;;;;;;;;;;;;;5047616;28;19913;-36
2022/02/21 17:48:20;;;;;;;;;;;;;;;;;;5039270;28;19909;-37
2022/02/21 17:50:47;;;;;;;;;;;;;;;;;;5033984;28;19909;-37
2022/02/21 17:53:13;;;;;;;;;;;;;;;;;;5034092;28;19909;-36
2022/02/21 17:55:39;;;;;;;;;;;;;;;;;;5034055;28;20278;-37
2022/02/21 17:58:05;;;;;;;;;;;;;;;;;;5034089;28;19932;-37
2022/02/21 18:00:30;;;;;;;;;;;;;;;;;;5033934;28;19936;-37
2022/02/21 18:02:56;;;;;;;;;;;;;;;;;;5034040;28;19916;-37
2022/02/21 18:05:24;;;;;;;;;;;;;;;;;;5033929;28;19920;-37
2022/02/21 18:07:50;;;;;;;;;;;;;;;;;;5033718;28;20345;-38
2022/02/21 18:10:16;;;;;;;;;;;;;;;;;;5033740;28;19916;-37
2022/02/21 18:12:42;;;;;;;;;;;;;;;;;;5033954;28;19923;-37
2022/02/21 18:15:08;;;;;;;;;;;;;;;;;;5033893;28;19997;-36
2022/02/21 18:17:34;;;;;;;;;;;;;;;;;;5033810;28;19913;-37
2022/02/21 18:20:00;;;;;;;;;;;;;;;;;;5033505;28;19967;-37
2022/02/21 18:22:26;;;;;;;;;;;;;;;;;;5015539;28;20372;-35
2022/02/21 18:24:51;;;;;;;;;;;;;;;;;;5047860;28;19909;-35
